ジャカルタ の空港の天気 - METARとTAF

スカルノハッタ国際空港 ( WIII / CGK ) - インドネシア バンテン州、Cengkareng ( ジャカルタ近郊)
飛行場実況気象(Metar)
観測時間05/21 13:30 WIB (05/21 06:30 UTC)
風向・風速北北東 4m/s
視程9000m
天気現象
少しの雲 雲底高度 610m
気温31℃
湿度70%
気圧1007hPa
METARWIII 210630Z 02008KT 9000 FEW020 31/25 Q1007 NOSIG
過去の天気等 Google飛行場航空写真 Wunderground天気予報

過去48時間のMETAR

飛行場予報(TAF)
発表時間: 5/21 12:00 WIB (5/21 05:00 UTC)
予報対象時間: 21日13時 WIB ~ 22日19時 WIB
風向・風速東 4m/s
視程10km以上
少しの雲 雲底高度 610m
21日21時 WIB ~ 22日1時 WIB に一時的に
視程5,000m
天気現象弱い雷雨
少しの積乱雲 雲底高度 550m
全天の8割程度の雲 雲底高度 610m
TAF WIII 210500Z 2106/2212 09008KT 9999 FEW020
TEMPO 2114/2118 5000 -TSRA FEW018CB BKN020